createdAt,value
2022-08-19T00:02:10.685Z,13.25
2022-08-19T00:04:37.949Z,13.80
2022-08-19T00:07:07.347Z,12.95
2022-08-19T00:09:34.682Z,14.90
2022-08-19T00:12:02.481Z,14.82
2022-08-19T00:14:32.316Z,16.10
2022-08-19T00:17:00.352Z,15.88
2022-08-19T00:19:27.852Z,14.60
2022-08-19T00:21:57.465Z,14.73
2022-08-19T00:24:25.183Z,14.27
2022-08-19T00:26:53.506Z,15.15
2022-08-19T00:29:22.112Z,15.90
2022-08-19T00:31:50.700Z,14.52
2022-08-19T00:34:18.299Z,15.02
2022-08-19T00:36:46.374Z,15.73
2022-08-19T00:39:13.878Z,16.40
2022-08-19T00:41:41.529Z,15.00
2022-08-19T00:44:16.021Z,15.68
2022-08-19T00:46:55.455Z,16.67
2022-08-19T00:49:51.636Z,16.95
2022-08-19T00:52:30.072Z,16.38
2022-08-19T00:54:58.865Z,16.05
2022-08-19T00:57:42.877Z,17.17
2022-08-19T01:00:14.421Z,17.85
2022-08-19T01:02:42.815Z,17.00
2022-08-19T01:05:16.893Z,16.40
2022-08-19T01:07:44.178Z,17.65
2022-08-19T01:10:14.903Z,17.23
2022-08-19T01:12:42.233Z,18.15
2022-08-19T01:15:12.067Z,18.58
2022-08-19T01:17:40.700Z,18.90
2022-08-19T01:20:12.399Z,18.52
2022-08-19T01:22:49.084Z,18.08
2022-08-19T01:25:18.944Z,17.10
2022-08-19T01:27:50.063Z,18.90
2022-08-19T01:30:24.926Z,18.52
2022-08-19T01:35:21.117Z,18.30
2022-08-19T01:38:00.940Z,18.77
2022-08-19T01:40:32.436Z,19.13
2022-08-19T01:45:29.046Z,20.67
2022-08-19T01:48:02.085Z,20.10
2022-08-19T01:50:31.619Z,21.10
2022-08-19T01:53:02.449Z,20.33
2022-08-19T01:55:35.864Z,21.65
2022-08-19T01:58:13.253Z,22.25
2022-08-19T02:00:40.702Z,21.65
2022-08-19T02:03:07.921Z,22.13
2022-08-19T02:05:35.348Z,23.08
2022-08-19T02:08:02.820Z,22.45
2022-08-19T02:10:29.935Z,23.40
2022-08-19T02:12:57.068Z,24.38
2022-08-19T02:15:25.666Z,23.88
2022-08-19T02:17:52.994Z,24.48
2022-08-19T02:20:19.993Z,25.25
2022-08-19T02:22:47.194Z,23.45
2022-08-19T02:25:15.523Z,25.60
2022-08-19T02:27:43.278Z,25.02
2022-08-19T02:30:17.020Z,26.73
2022-08-19T02:32:45.189Z,26.17
2022-08-19T02:35:14.450Z,24.83
2022-08-19T02:38:03.642Z,24.45
2022-08-19T02:40:34.836Z,24.00
2022-08-19T02:43:10.790Z,26.08
2022-08-19T02:45:41.572Z,25.73
2022-08-19T02:48:21.344Z,27.25
2022-08-19T02:50:56.020Z,24.23
2022-08-19T02:53:25.625Z,25.35
2022-08-19T02:55:53.259Z,26.30
2022-08-19T02:58:21.055Z,26.73
2022-08-19T03:00:51.210Z,26.67
2022-08-19T03:03:19.868Z,27.08
2022-08-19T03:05:56.015Z,28.25
2022-08-19T03:08:24.038Z,26.48
2022-08-19T03:10:53.092Z,27.00
2022-08-19T03:13:20.239Z,28.40
2022-08-19T03:15:48.650Z,27.52
2022-08-19T03:18:16.235Z,28.25
2022-08-19T03:20:47.353Z,27.58
2022-08-19T03:23:16.344Z,27.35
2022-08-19T03:26:05.622Z,28.00
2022-08-19T03:28:36.133Z,25.92
2022-08-19T03:31:44.940Z,26.30
2022-08-19T03:34:04.588Z,27.73
2022-08-19T03:36:35.419Z,28.10
2022-08-19T03:39:03.122Z,29.40
2022-08-19T03:41:34.365Z,30.10
2022-08-19T03:44:12.671Z,28.23
2022-08-19T03:46:50.755Z,29.02
2022-08-19T03:49:18.879Z,26.75
2022-08-19T03:51:48.492Z,27.70
2022-08-19T03:54:17.594Z,28.55
2022-08-19T03:56:46.478Z,29.77
2022-08-19T03:59:18.882Z,29.45
2022-08-19T04:01:46.777Z,29.80
2022-08-19T04:04:13.860Z,30.48
2022-08-19T04:06:40.935Z,28.55
2022-08-19T04:09:10.827Z,28.60
2022-08-19T04:11:49.400Z,27.67
2022-08-19T04:14:20.836Z,28.33
2022-08-19T04:16:49.587Z,29.42
2022-08-19T04:19:18.291Z,26.98
2022-08-19T04:21:52.421Z,29.13
2022-08-19T04:24:20.077Z,28.23
2022-08-19T04:26:47.967Z,29.13
2022-08-19T04:29:17.839Z,27.88
2022-08-19T04:31:46.263Z,29.08
2022-08-19T04:34:16.138Z,29.88
2022-08-19T04:36:46.021Z,27.65
2022-08-19T04:39:16.708Z,27.92
2022-08-19T04:42:03.860Z,28.85
2022-08-19T04:44:33.144Z,28.17
2022-08-19T04:47:01.542Z,27.55
2022-08-19T04:49:29.013Z,28.00
2022-08-19T04:51:56.747Z,28.27
2022-08-19T04:54:36.930Z,29.55
2022-08-19T04:57:11.148Z,30.40
2022-08-19T04:59:39.733Z,30.23
2022-08-19T05:02:09.708Z,30.00
2022-08-19T05:04:40.329Z,31.65
2022-08-19T05:07:09.289Z,31.20
2022-08-19T05:09:57.702Z,30.42
2022-08-19T05:12:28.736Z,29.73
2022-08-19T05:14:58.431Z,55.38
2022-08-19T05:17:29.476Z,56.00
2022-08-19T05:20:17.106Z,32.15
2022-08-19T05:22:47.814Z,42.20
2022-08-19T05:25:20.095Z,31.45
2022-08-19T05:27:48.436Z,34.83
2022-08-19T05:30:16.523Z,32.72
2022-08-19T05:32:44.242Z,36.35
2022-08-19T05:35:12.772Z,30.45
2022-08-19T05:37:43.732Z,30.23
2022-08-19T05:40:11.404Z,29.48
2022-08-19T05:42:38.873Z,31.77
2022-08-19T05:45:07.003Z,30.88
2022-08-19T05:47:34.204Z,30.33
2022-08-19T05:50:05.028Z,31.25
2022-08-19T05:52:32.679Z,32.03
2022-08-19T05:55:00.699Z,34.10
2022-08-19T05:57:30.210Z,38.67
2022-08-19T05:59:59.121Z,37.00
2022-08-19T06:02:27.628Z,35.05
2022-08-19T06:04:54.762Z,32.33
2022-08-19T06:07:23.079Z,46.67
2022-08-19T06:10:00.000Z,34.88
2022-08-19T06:12:37.790Z,40.38
2022-08-19T06:15:14.417Z,33.65
2022-08-19T06:17:43.158Z,38.40
2022-08-19T06:20:14.280Z,34.63
2022-08-19T06:22:47.472Z,33.28
2022-08-19T06:25:15.594Z,36.53
2022-08-19T06:30:30.661Z,33.03
2022-08-19T06:32:57.701Z,32.45
2022-08-19T06:35:24.971Z,34.75
2022-08-19T06:37:53.582Z,31.40
2022-08-19T06:40:20.951Z,31.50
2022-08-19T06:42:54.366Z,31.13
2022-08-19T06:45:24.941Z,29.48
2022-08-19T06:48:02.401Z,28.80
2022-08-19T06:50:30.561Z,29.42
2022-08-19T06:52:57.947Z,27.98
2022-08-19T06:55:28.383Z,27.00
2022-08-19T06:57:55.439Z,26.45
2022-08-19T07:00:22.572Z,25.33
2022-08-19T07:02:55.789Z,23.02
2022-08-19T07:05:26.919Z,23.92
2022-08-19T07:07:54.415Z,23.38
2022-08-19T07:10:26.269Z,22.52
2022-08-19T07:12:53.805Z,21.23
2022-08-19T07:15:22.236Z,21.98
2022-08-19T07:17:52.509Z,20.70
2022-08-19T07:20:20.648Z,20.10
2022-08-19T07:22:48.866Z,19.15
2022-08-19T07:25:18.166Z,18.73
2022-08-19T07:27:46.215Z,18.25
2022-08-19T07:30:14.493Z,18.55
2022-08-19T07:32:41.886Z,17.48
2022-08-19T07:35:10.322Z,19.08
2022-08-19T07:37:39.222Z,24.23
2022-08-19T07:40:08.521Z,20.17
2022-08-19T07:42:35.816Z,21.33
2022-08-19T07:45:04.153Z,19.88
2022-08-19T07:47:48.779Z,21.08
2022-08-19T07:50:20.318Z,21.55
2022-08-19T07:52:50.598Z,26.08
2022-08-19T07:55:41.817Z,45.13
2022-08-19T07:58:10.985Z,22.55
2022-08-19T08:00:38.858Z,22.50
2022-08-19T08:03:06.054Z,21.63
2022-08-19T08:05:52.227Z,32.97
2022-08-19T08:08:44.209Z,28.05
2022-08-19T08:11:15.697Z,23.25
2022-08-19T08:13:43.193Z,22.80
2022-08-19T08:16:14.414Z,22.73
2022-08-19T08:21:17.425Z,31.35
2022-08-19T08:23:44.894Z,24.15
2022-08-19T08:26:13.982Z,25.67
2022-08-19T08:28:43.177Z,24.25
2022-08-19T08:31:15.574Z,24.92
2022-08-19T08:33:43.342Z,27.73
2022-08-19T08:36:12.378Z,24.88
2022-08-19T08:38:40.857Z,29.65
2022-08-19T08:41:48.624Z,41.08
2022-08-19T08:44:23.368Z,46.88
2022-08-19T08:46:56.724Z,47.22
2022-08-19T08:49:29.997Z,30.27
2022-08-19T08:52:14.666Z,51.50
2022-08-19T08:54:48.833Z,37.95
2022-08-19T08:57:40.810Z,24.77
2022-08-19T09:00:15.310Z,26.45
2022-08-19T09:02:44.519Z,33.58
2022-08-19T09:05:16.862Z,25.73
2022-08-19T09:08:02.038Z,24.20
2022-08-19T09:10:44.000Z,25.92
2022-08-19T09:13:18.378Z,24.52
2022-08-19T09:15:52.752Z,24.70
2022-08-19T09:18:19.987Z,25.00
2022-08-19T09:20:48.840Z,25.35
2022-08-19T09:23:16.915Z,26.27
2022-08-19T09:25:44.162Z,25.90
2022-08-19T09:28:22.155Z,26.67
2022-08-19T09:30:53.390Z,26.23
2022-08-19T09:33:21.151Z,26.17
2022-08-19T09:35:53.158Z,26.35
2022-08-19T09:38:22.140Z,25.95
2022-08-19T09:40:50.867Z,27.98
2022-08-19T09:43:33.553Z,26.63
2022-08-19T09:46:10.369Z,27.63
2022-08-19T09:48:38.187Z,26.70
2022-08-19T09:51:16.751Z,27.75
2022-08-19T09:53:46.396Z,27.95
2022-08-19T09:56:14.985Z,28.63
2022-08-19T09:58:42.818Z,27.90
2022-08-19T10:01:11.240Z,27.70
2022-08-19T10:03:38.501Z,27.80
2022-08-19T10:06:14.884Z,27.73
2022-08-19T10:08:50.116Z,28.73
2022-08-19T10:11:28.435Z,28.23
2022-08-19T10:14:08.969Z,27.92
2022-08-19T10:16:40.674Z,28.48
2022-08-19T10:19:08.915Z,27.98
2022-08-19T10:21:37.854Z,27.90
2022-08-19T10:24:09.526Z,27.73
2022-08-19T10:26:42.900Z,27.98
2022-08-19T10:29:11.547Z,29.17
2022-08-19T10:32:01.417Z,50.50
2022-08-19T10:37:01.314Z,33.25
2022-08-19T10:39:42.998Z,33.57
2022-08-19T10:42:14.375Z,29.88
2022-08-19T10:44:43.082Z,39.90
2022-08-19T10:47:17.914Z,38.97
2022-08-19T10:50:17.540Z,32.50
2022-08-19T10:52:49.700Z,32.10
2022-08-19T10:55:40.228Z,30.90
2022-08-19T10:58:23.480Z,32.42
2022-08-19T11:00:57.743Z,31.30
2022-08-19T11:03:35.122Z,31.35
2022-08-19T11:06:08.998Z,36.95
2022-08-19T11:08:39.170Z,30.27
2022-08-19T11:11:07.905Z,31.23
2022-08-19T11:13:38.474Z,34.40
2022-08-19T11:16:12.367Z,30.23
2022-08-19T11:18:43.865Z,29.77
2022-08-19T11:21:17.961Z,31.65
2022-08-19T11:23:46.437Z,31.75
2022-08-19T11:26:14.722Z,29.88
2022-08-19T11:28:42.766Z,29.88
2022-08-19T11:31:15.775Z,27.92
2022-08-19T11:33:47.658Z,28.65
2022-08-19T11:36:17.440Z,27.55
2022-08-19T11:38:46.240Z,44.97
2022-08-19T11:41:13.528Z,30.83
2022-08-19T11:43:41.245Z,28.75
2022-08-19T11:46:11.268Z,28.27
2022-08-19T11:48:39.207Z,27.42
2022-08-19T11:51:13.143Z,26.33
2022-08-19T11:53:41.011Z,25.33
2022-08-19T11:56:10.385Z,23.55
2022-08-19T11:58:37.886Z,28.98
2022-08-19T12:01:09.965Z,32.15
2022-08-19T12:03:37.170Z,25.70
2022-08-19T12:06:16.486Z,25.30
2022-08-19T12:08:45.495Z,30.80
2022-08-19T12:11:14.683Z,22.92
2022-08-19T12:13:47.057Z,25.38
2022-08-19T12:16:18.705Z,22.63
2022-08-19T12:18:49.410Z,22.58
2022-08-19T12:21:23.183Z,23.50
2022-08-19T12:23:55.594Z,23.80
2022-08-19T12:26:24.634Z,27.70
2022-08-19T12:28:52.076Z,27.50
2022-08-19T12:31:20.785Z,28.05
2022-08-19T12:33:48.945Z,31.25
2022-08-19T12:36:18.662Z,26.45
2022-08-19T12:38:46.543Z,28.95
2022-08-19T12:41:15.601Z,29.80
2022-08-19T12:43:43.465Z,27.65
2022-08-19T12:46:12.181Z,29.80
2022-08-19T12:48:43.759Z,28.90
2022-08-19T12:51:15.727Z,28.00
2022-08-19T12:53:44.013Z,29.35
2022-08-19T12:56:15.645Z,29.63
2022-08-19T12:58:48.727Z,29.17
2022-08-19T13:01:21.954Z,30.98
2022-08-19T13:03:51.403Z,28.33
2022-08-19T13:06:19.044Z,28.48
2022-08-19T13:08:47.503Z,28.38
2022-08-19T13:11:18.595Z,27.85
2022-08-19T13:13:48.381Z,28.10
2022-08-19T13:16:15.806Z,27.58
2022-08-19T13:18:45.447Z,26.38
2022-08-19T13:21:15.839Z,28.35
2022-08-19T13:23:43.147Z,27.25
2022-08-19T13:26:12.674Z,27.70
2022-08-19T13:28:59.894Z,29.00
2022-08-19T13:31:48.712Z,26.58
2022-08-19T13:34:21.198Z,28.13
2022-08-19T13:36:56.634Z,28.48
2022-08-19T13:39:24.916Z,27.80
2022-08-19T13:41:52.361Z,28.85
2022-08-19T13:44:20.746Z,27.38
2022-08-19T13:46:54.095Z,27.23
2022-08-19T13:49:21.812Z,28.20
2022-08-19T13:51:49.057Z,27.58
2022-08-19T13:54:16.655Z,28.48
2022-08-19T13:56:46.150Z,26.33
2022-08-19T13:59:17.746Z,26.25
2022-08-19T14:01:46.234Z,30.15
2022-08-19T14:04:13.593Z,27.88
2022-08-19T14:06:41.490Z,25.98
2022-08-19T14:09:09.241Z,25.10
2022-08-19T14:11:37.186Z,25.73
2022-08-19T14:14:05.334Z,25.55
2022-08-19T14:16:32.775Z,23.52
2022-08-19T14:19:00.685Z,24.38
2022-08-19T14:21:28.801Z,25.35
2022-08-19T14:23:55.875Z,24.20
2022-08-19T14:26:24.139Z,26.48
2022-08-19T14:28:53.524Z,24.33
2022-08-19T14:31:22.476Z,25.52
2022-08-19T14:33:51.321Z,24.98
2022-08-19T14:36:20.837Z,25.27
2022-08-19T14:38:49.825Z,25.77
2022-08-19T14:41:21.432Z,25.58
2022-08-19T14:43:51.027Z,24.05
2022-08-19T14:46:22.079Z,22.42
2022-08-19T14:48:52.563Z,23.23
2022-08-19T14:51:21.671Z,25.33
2022-08-19T14:53:49.853Z,22.73
2022-08-19T14:56:20.913Z,23.10
2022-08-19T15:01:15.398Z,20.95
2022-08-19T15:03:42.583Z,23.27
2022-08-19T15:06:12.591Z,22.40
2022-08-19T15:08:42.276Z,22.63
2022-08-19T15:11:12.479Z,21.73
2022-08-19T15:13:40.568Z,20.17
2022-08-19T15:16:12.260Z,20.58
2022-08-19T15:18:47.296Z,20.58
2022-08-19T15:21:17.892Z,18.77
2022-08-19T15:23:55.747Z,19.23
2022-08-19T15:26:23.205Z,18.48
2022-08-19T15:28:50.331Z,18.63
2022-08-19T15:31:28.096Z,18.83
2022-08-19T15:33:58.466Z,18.58
2022-08-19T15:36:27.095Z,19.35
2022-08-19T15:38:56.143Z,16.77
2022-08-19T15:41:26.779Z,19.65
2022-08-19T15:44:10.211Z,20.58
2022-08-19T15:46:40.768Z,22.00
2022-08-19T15:49:09.640Z,19.42
2022-08-19T15:51:39.209Z,16.95
2022-08-19T15:54:09.078Z,22.13
2022-08-19T15:56:57.970Z,19.95
2022-08-19T15:59:47.136Z,18.45
2022-08-19T16:02:37.914Z,18.67
2022-08-19T16:05:30.496Z,19.98
2022-08-19T16:07:57.906Z,32.47
2022-08-19T16:10:27.375Z,17.75
2022-08-19T16:12:57.399Z,21.35
2022-08-19T16:15:28.056Z,21.10
2022-08-19T16:17:57.239Z,18.02
2022-08-19T16:20:27.550Z,17.27
2022-08-19T16:22:58.233Z,15.63
2022-08-19T16:25:28.627Z,17.75
2022-08-19T16:28:07.037Z,20.63
2022-08-19T16:30:37.840Z,18.55
2022-08-19T16:33:05.638Z,20.98
2022-08-19T16:35:32.876Z,18.77
2022-08-19T16:38:02.516Z,18.98
2022-08-19T16:40:30.067Z,19.77
2022-08-19T16:42:57.166Z,20.05
2022-08-19T16:45:24.735Z,17.63
2022-08-19T16:47:52.269Z,19.63
2022-08-19T16:50:25.386Z,17.35
2022-08-19T16:53:01.218Z,19.77
2022-08-19T16:55:30.831Z,17.65
2022-08-19T16:57:57.882Z,16.80
2022-08-19T17:00:24.996Z,16.08
2022-08-19T17:02:52.812Z,15.80
2022-08-19T17:05:19.901Z,15.93
2022-08-19T17:07:47.057Z,14.75
2022-08-19T17:10:15.180Z,15.23
2022-08-19T17:12:42.918Z,14.57
2022-08-19T17:15:09.951Z,13.27
2022-08-19T17:17:37.418Z,14.02
2022-08-19T17:20:06.872Z,13.25
2022-08-19T17:22:36.848Z,13.50
2022-08-19T17:25:04.941Z,14.20
2022-08-19T17:27:32.399Z,11.88
2022-08-19T17:30:05.204Z,13.15
2022-08-19T17:32:35.133Z,13.32
2022-08-19T17:35:04.194Z,12.30
2022-08-19T17:37:31.332Z,13.52
2022-08-19T17:39:58.583Z,13.82
2022-08-19T17:42:26.540Z,14.82
2022-08-19T17:44:53.764Z,14.00
2022-08-19T17:47:21.233Z,13.57
2022-08-19T17:49:48.572Z,13.68
2022-08-19T17:52:16.366Z,13.82
2022-08-19T17:54:46.562Z,13.35
2022-08-19T17:57:14.454Z,13.63
2022-08-19T17:59:41.525Z,13.98
2022-08-19T18:02:10.823Z,13.60
2022-08-19T18:04:38.858Z,14.18
2022-08-19T18:07:06.621Z,14.10
2022-08-19T18:09:41.619Z,15.15
2022-08-19T18:12:12.646Z,14.88
2022-08-19T18:14:40.507Z,15.38
2022-08-19T18:17:12.762Z,15.55
2022-08-19T18:19:43.264Z,15.15
2022-08-19T18:22:22.526Z,13.82
2022-08-19T18:24:49.991Z,13.93
2022-08-19T18:27:17.145Z,15.45
2022-08-19T18:29:45.094Z,14.80
2022-08-19T18:32:12.986Z,13.93
2022-08-19T18:34:43.006Z,14.32
2022-08-19T18:37:10.999Z,15.73
2022-08-19T18:39:57.150Z,14.32
2022-08-19T18:42:43.259Z,15.48
2022-08-19T18:45:30.291Z,15.45
2022-08-19T18:48:24.237Z,15.85
2022-08-19T18:50:57.149Z,15.30
2022-08-19T18:53:27.398Z,14.80
2022-08-19T18:55:55.436Z,16.23
2022-08-19T18:58:34.271Z,15.15
2022-08-19T19:01:11.751Z,15.95
2022-08-19T19:03:45.227Z,14.40
2022-08-19T19:06:19.830Z,16.75
2022-08-19T19:08:48.313Z,16.95
2022-08-19T19:11:21.478Z,16.35
2022-08-19T19:13:49.744Z,16.15
2022-08-19T19:16:22.441Z,16.83
2022-08-19T19:18:52.622Z,16.02
2022-08-19T19:21:23.085Z,17.00
2022-08-19T19:23:51.780Z,18.07
2022-08-19T19:26:19.255Z,17.77
2022-08-19T19:28:47.833Z,18.02
2022-08-19T19:31:23.013Z,17.55
2022-08-19T19:33:50.894Z,19.35
2022-08-19T19:36:18.070Z,17.50
2022-08-19T19:38:48.619Z,19.23
2022-08-19T19:41:24.725Z,18.63
2022-08-19T19:44:29.909Z,19.73
2022-08-19T19:46:45.764Z,21.80
2022-08-19T19:49:13.672Z,20.90
2022-08-19T19:51:41.556Z,19.10
2022-08-19T19:54:15.425Z,19.42
2022-08-19T19:56:50.630Z,25.15
2022-08-19T19:59:18.520Z,24.38
2022-08-19T20:01:48.433Z,22.00
2022-08-19T20:04:17.008Z,20.10
2022-08-19T20:06:46.082Z,20.50
2022-08-19T20:09:19.488Z,21.05
2022-08-19T20:11:53.983Z,20.83
2022-08-19T20:14:27.213Z,20.00
2022-08-19T20:16:56.436Z,21.30
2022-08-19T20:19:27.701Z,22.25
2022-08-19T20:21:55.860Z,21.92
2022-08-19T20:24:26.999Z,20.70
2022-08-19T20:26:54.792Z,21.27
2022-08-19T20:29:39.208Z,22.50
2022-08-19T20:32:10.158Z,30.20
2022-08-19T20:34:38.004Z,25.27
2022-08-19T20:37:05.293Z,24.63
2022-08-19T20:39:32.405Z,21.52
2022-08-19T20:42:01.174Z,23.13
2022-08-19T20:44:28.290Z,21.52
2022-08-19T20:46:58.418Z,20.77
2022-08-19T20:49:27.714Z,22.92
2022-08-19T20:51:56.946Z,21.75
2022-08-19T20:54:25.014Z,24.02
2022-08-19T20:57:04.101Z,32.13
2022-08-19T20:59:31.506Z,33.80
2022-08-19T21:01:58.857Z,29.48
2022-08-19T21:04:28.532Z,27.38
2022-08-19T21:06:56.065Z,26.75
2022-08-19T21:09:23.375Z,27.13
2022-08-19T21:11:50.855Z,27.30
2022-08-19T21:14:18.101Z,26.60
2022-08-19T21:16:45.434Z,25.67
2022-08-19T21:19:13.025Z,26.20
2022-08-19T21:21:40.377Z,27.08
2022-08-19T21:24:08.029Z,27.17
2022-08-19T21:26:35.241Z,34.83
2022-08-19T21:29:02.401Z,26.58
2022-08-19T21:31:29.629Z,28.27
2022-08-19T21:33:56.839Z,30.40
2022-08-19T21:36:24.284Z,34.00
2022-08-19T21:38:51.782Z,28.45
2022-08-19T21:41:19.059Z,26.83
2022-08-19T21:43:46.304Z,27.45
2022-08-19T21:46:13.369Z,46.92
2022-08-19T21:48:40.406Z,36.50
2022-08-19T21:51:08.682Z,25.92
2022-08-19T21:53:35.902Z,31.40
2022-08-19T21:56:04.222Z,42.67
2022-08-19T21:58:31.346Z,23.90
2022-08-19T22:01:06.124Z,38.13
2022-08-19T22:03:35.851Z,26.10
2022-08-19T22:06:03.142Z,30.23
2022-08-19T22:08:31.696Z,29.23
2022-08-19T22:11:01.657Z,57.13
2022-08-19T22:13:30.876Z,25.48
2022-08-19T22:15:57.937Z,41.78
2022-08-19T22:18:24.993Z,38.10
2022-08-19T22:20:52.032Z,33.40
2022-08-19T22:23:19.146Z,26.17
2022-08-19T22:25:46.983Z,24.25
2022-08-19T22:28:19.119Z,27.90
2022-08-19T22:30:54.737Z,50.93
2022-08-19T22:33:22.629Z,34.58
2022-08-19T22:35:51.949Z,49.55
2022-08-19T22:38:19.391Z,27.10
2022-08-19T22:40:48.560Z,25.73
2022-08-19T22:43:22.510Z,23.75
2022-08-19T22:45:51.344Z,24.42
2022-08-19T22:48:20.895Z,32.38
2022-08-19T22:51:07.683Z,24.23
2022-08-19T22:53:37.137Z,31.48
2022-08-19T22:56:06.209Z,23.05
2022-08-19T22:58:33.421Z,24.10
2022-08-19T23:01:00.573Z,21.90
2022-08-19T23:03:27.654Z,22.02
2022-08-19T23:05:56.194Z,22.48
2022-08-19T23:08:23.563Z,22.15
2022-08-19T23:10:50.742Z,21.45
2022-08-19T23:13:18.759Z,23.00
2022-08-19T23:15:47.018Z,25.98
2022-08-19T23:18:14.892Z,24.00
2022-08-19T23:20:43.235Z,21.63
2022-08-19T23:23:13.321Z,24.45
2022-08-19T23:25:40.633Z,24.60
2022-08-19T23:28:26.366Z,23.27
2022-08-19T23:30:53.729Z,22.73
2022-08-19T23:33:51.119Z,22.58
2022-08-19T23:36:19.775Z,24.30
2022-08-19T23:38:49.006Z,24.35
2022-08-19T23:41:18.255Z,26.05
2022-08-19T23:43:45.669Z,26.20
2022-08-19T23:46:27.558Z,24.00
2022-08-19T23:48:57.035Z,24.13
2022-08-19T23:51:26.507Z,25.75
2022-08-19T23:53:54.135Z,29.02
2022-08-19T23:56:21.590Z,28.58
2022-08-19T23:58:49.415Z,27.30
